Time;durP1;ratioP1;P1;durP2;ratioP2;P2;SDS_P1;SDS_P2;PMS_P1;PMS_P2;Temp;Humidity;BMP_temperature;BMP_pressure;BME280_temperature;BME280_humidity;BME280_pressure;Samples;Min_cycle;Max_cycle;Signal;HPM_P1;HPM_P2
2021/03/21 00:01:44;;;;;;;12.00;6.13;;;;;;;-0.47;60.79;96841.38;5075155;28;20461;-79
2021/03/21 00:04:15;;;;;;;11.37;6.30;;;;;;;-0.45;61.16;96849.06;5069856;28;20025;-79
2021/03/21 00:06:41;;;;;;;9.00;5.47;;;;;;;-0.42;61.02;96842.00;5064320;28;20488;-78
2021/03/21 00:09:08;;;;;;;10.67;5.93;;;;;;;-0.48;60.69;96844.88;5083585;28;20469;-79
2021/03/21 00:11:34;;;;;;;11.07;6.47;;;;;;;-0.39;60.10;96853.94;5097350;28;20467;-79
2021/03/21 00:14:00;;;;;;;11.07;6.07;;;;;;;-0.48;60.21;96855.22;5077442;28;20662;-79
2021/03/21 00:16:26;;;;;;;11.17;5.73;;;;;;;-0.54;60.68;96855.53;5072084;28;20470;-79
2021/03/21 00:18:52;;;;;;;12.10;6.03;;;;;;;-0.56;60.25;96847.84;5087116;28;20589;-79
2021/03/21 00:21:18;;;;;;;11.37;5.93;;;;;;;-0.46;59.97;96848.25;5084050;28;20061;-79
2021/03/21 00:23:44;;;;;;;9.80;5.67;;;;;;;-0.57;60.47;96830.69;5078280;28;20039;-79
2021/03/21 00:26:11;;;;;;;9.17;5.60;;;;;;;-0.49;60.73;96836.31;5069445;28;20483;-79
2021/03/21 00:28:38;;;;;;;8.80;4.80;;;;;;;-0.43;60.85;96837.75;5057354;28;20091;-79
2021/03/21 00:31:06;;;;;;;9.80;5.57;;;;;;;-0.44;60.24;96833.47;5070768;28;20458;-79
2021/03/21 00:33:35;;;;;;;9.10;5.10;;;;;;;-0.45;60.36;96834.41;5054706;28;20442;-79
2021/03/21 00:36:02;;;;;;;9.07;5.47;;;;;;;-0.43;61.55;96831.75;5064409;28;20859;-79
2021/03/21 00:38:33;;;;;;;10.13;5.20;;;;;;;-0.58;61.65;96830.75;5076368;28;20463;-79
2021/03/21 00:40:59;;;;;;;9.07;4.90;;;;;;;-0.52;62.14;96825.28;5077919;28;20773;-79
2021/03/21 00:43:26;;;;;;;10.33;4.87;;;;;;;-0.46;62.21;96822.41;5076242;28;20443;-79
2021/03/21 00:45:52;;;;;;;7.00;4.23;;;;;;;-0.47;61.09;96825.88;5058314;28;20486;-79
2021/03/21 00:48:22;;;;;;;8.67;4.90;;;;;;;-0.54;60.92;96814.19;5059753;28;20463;-79
2021/03/21 00:50:49;;;;;;;9.43;5.17;;;;;;;-0.62;60.82;96818.91;5081158;28;20461;-79
2021/03/21 00:53:17;;;;;;;9.20;5.47;;;;;;;-0.52;61.34;96820.13;5078226;28;20541;-79
2021/03/21 00:55:43;;;;;;;8.70;5.17;;;;;;;-0.51;60.30;96809.69;5078212;28;20494;-79
2021/03/21 00:58:09;;;;;;;11.50;5.37;;;;;;;-0.51;60.48;96801.13;5084608;28;20450;-79
2021/03/21 01:00:47;;;;;;;8.30;4.60;;;;;;;-0.62;60.79;96806.81;5074003;28;20103;-79
2021/03/21 01:03:14;;;;;;;10.17;5.33;;;;;;;-0.54;60.46;96803.84;5079968;28;20449;-79
2021/03/21 01:05:42;;;;;;;10.30;5.37;;;;;;;-0.63;60.73;96801.75;5081007;28;20447;-79
2021/03/21 01:08:31;;;;;;;10.37;5.03;;;;;;;-0.62;60.06;96798.25;5076719;28;20481;-79
2021/03/21 01:11:13;;;;;;;11.57;5.10;;;;;;;-0.68;59.99;96793.38;5079567;28;20426;-79
2021/03/21 01:13:39;;;;;;;11.17;5.00;;;;;;;-0.62;59.98;96790.50;5078538;28;20818;-79
2021/03/21 01:16:09;;;;;;;10.73;5.33;;;;;;;-0.65;60.20;96785.47;5076559;28;20874;-79
2021/03/21 01:18:35;;;;;;;11.00;5.57;;;;;;;-0.71;59.97;96777.13;5078327;28;20817;-78
2021/03/21 01:21:05;;;;;;;8.27;4.93;;;;;;;-0.67;60.50;96784.72;5086159;28;20458;-79
2021/03/21 01:23:31;;;;;;;9.70;5.13;;;;;;;-0.60;60.14;96779.19;5077601;28;20448;-78
2021/03/21 01:25:57;;;;;;;9.13;5.37;;;;;;;-0.61;60.27;96776.66;5067209;28;20474;-79
2021/03/21 01:28:32;;;;;;;10.53;5.47;;;;;;;-0.62;60.00;96769.84;5083619;28;20510;-79
2021/03/21 01:30:59;;;;;;;10.20;5.53;;;;;;;-0.61;60.11;96777.50;5082183;28;20451;-79
2021/03/21 01:33:28;;;;;;;10.00;5.33;;;;;;;-0.67;60.63;96767.50;5083732;28;20457;-78
2021/03/21 01:35:54;;;;;;;9.37;5.60;;;;;;;-0.68;61.09;96760.63;5061228;28;20470;-78
2021/03/21 01:38:21;;;;;;;9.77;5.73;;;;;;;-0.51;61.29;96768.34;5083389;28;20484;-79
2021/03/21 01:40:49;;;;;;;9.73;5.20;;;;;;;-0.63;61.03;96763.00;5081052;28;20906;-79
2021/03/21 01:43:17;;;;;;;8.90;5.37;;;;;;;-0.68;61.99;96754.63;5068502;28;20931;-79
2021/03/21 01:45:45;;;;;;;11.37;5.70;;;;;;;-0.65;62.11;96751.91;5060838;28;20470;-79
2021/03/21 01:48:32;;;;;;;9.87;5.00;;;;;;;-0.64;62.22;96756.16;5082697;28;20476;-79
2021/03/21 01:51:02;;;;;;;8.20;4.77;;;;;;;-0.69;62.66;96747.81;5088727;28;20947;-79
2021/03/21 01:53:32;;;;;;;10.00;5.27;;;;;;;-0.66;62.29;96745.06;5063832;28;20477;-79
2021/03/21 01:55:59;;;;;;;8.90;4.90;;;;;;;-0.71;62.28;96742.72;5074226;28;20489;-81
2021/03/21 01:58:28;;;;;;;9.17;5.50;;;;;;;-0.72;62.83;96738.47;5086276;28;21353;-79
2021/03/21 02:00:58;;;;;;;10.47;5.47;;;;;;;-0.78;62.04;96742.19;5080150;28;20458;-78
2021/03/21 02:03:25;;;;;;;9.50;6.40;;;;;;;-0.68;61.80;96734.81;5078301;28;20523;-79
2021/03/21 02:06:25;;;;;;;11.40;5.70;;;;;;;-0.75;61.75;96742.03;5084238;28;20447;-79
2021/03/21 02:08:59;;;;;;;9.70;5.77;;;;;;;-0.64;62.00;96738.06;5072230;28;20513;-79
2021/03/21 02:11:34;;;;;;;9.87;5.60;;;;;;;-0.65;61.59;96726.91;5073280;28;20482;-79
2021/03/21 02:14:22;;;;;;;9.67;5.83;;;;;;;-0.71;60.69;96733.22;5082292;28;20529;-79
2021/03/21 02:17:00;;;;;;;8.87;4.93;;;;;;;-0.66;60.08;96724.41;5077495;28;20462;-79
2021/03/21 02:20:03;;;;;;;9.57;5.50;;;;;;;-0.71;61.21;96722.88;5072820;28;20481;-78
2021/03/21 02:22:34;;;;;;;10.07;5.40;;;;;;;-0.63;60.52;96716.50;5067450;28;20475;-80
2021/03/21 02:25:20;;;;;;;10.07;5.73;;;;;;;-0.78;61.09;96718.94;5082360;28;20462;-79
2021/03/21 02:28:14;;;;;;;10.03;5.17;;;;;;;-0.69;61.59;96715.06;5077875;28;20430;-79
2021/03/21 02:30:45;;;;;;;12.00;6.07;;;;;;;-0.67;61.49;96709.81;5079538;28;20450;-79
2021/03/21 02:33:16;;;;;;;10.30;5.30;;;;;;;-0.70;61.47;96700.50;5061091;28;20478;-80
2021/03/21 02:35:44;;;;;;;;;;;;;;;-0.66;61.41;96701.16;5070978;28;20461;-79
2021/03/21 02:38:23;;;;;;;12.23;5.40;;;;;;;-0.64;60.95;96699.31;5061849;28;19912;-79
2021/03/21 02:40:54;;;;;;;8.80;5.43;;;;;;;-0.72;61.21;96695.41;5071845;28;20032;-78
2021/03/21 02:43:40;;;;;;;9.63;6.07;;;;;;;-0.71;61.57;96694.47;5082302;28;20512;-79
2021/03/21 02:46:15;;;;;;;10.47;5.43;;;;;;;-0.73;60.22;96693.72;5078441;28;20565;-79
2021/03/21 02:48:59;;;;;;;10.73;5.67;;;;;;;-0.62;60.01;96692.34;5082689;28;20478;-79
2021/03/21 02:51:29;;;;;;;10.07;5.65;;;;;;;-0.61;60.73;96694.00;5082445;28;20983;-79
2021/03/21 02:54:11;;;;;;;10.83;5.00;;;;;;;-0.57;60.78;96692.91;5073031;28;20482;-79
2021/03/21 02:56:41;;;;;;;8.10;4.27;;;;;;;-0.65;59.51;96682.16;5085455;28;21301;-79
2021/03/21 02:59:18;;;;;;;10.60;5.63;;;;;;;-0.60;59.68;96680.19;5080749;28;20542;-79
2021/03/21 03:01:49;;;;;;;16.20;5.33;;;;;;;-0.73;60.06;96680.81;5078802;28;20462;-78
2021/03/21 03:04:23;;;;;;;11.73;5.60;;;;;;;-0.79;60.67;96669.97;5076861;28;20446;-79
2021/03/21 03:07:10;;;;;;;13.47;5.33;;;;;;;-0.71;60.83;96670.41;5084839;28;20807;-78
2021/03/21 03:09:44;;;;;;;12.30;5.77;;;;;;;-0.77;60.81;96668.97;5095445;28;20533;-79
2021/03/21 03:12:13;;;;;;;;;;;;;;;-0.75;60.40;96674.88;5079665;28;20493;-78
2021/03/21 03:14:41;;;;;;;9.40;5.40;;;;;;;-0.78;60.76;96671.63;5079697;28;19984;-78
2021/03/21 03:17:21;;;;;;;9.93;5.50;;;;;;;-0.69;60.73;96663.41;5074523;28;20562;-79
2021/03/21 03:20:06;;;;;;;10.67;5.47;;;;;;;-0.69;60.43;96660.84;5085853;28;20480;-79
2021/03/21 03:22:41;;;;;;;9.00;4.70;;;;;;;-0.67;60.21;96673.66;5074775;28;20582;-79
2021/03/21 03:25:20;;;;;;;9.33;5.07;;;;;;;-0.73;60.19;96657.56;5077782;28;20503;-79
2021/03/21 03:28:19;;;;;;;10.27;5.53;;;;;;;-0.64;60.57;96660.59;5081394;28;20442;-78
2021/03/21 03:30:59;;;;;;;10.47;5.47;;;;;;;-0.70;60.40;96656.59;5062689;28;20462;-79
2021/03/21 03:33:29;;;;;;;8.37;3.50;;;;;;;-0.68;60.53;96648.75;5077805;28;20447;-78
2021/03/21 03:35:58;;;;;;;10.53;4.83;;;;;;;-0.72;60.88;96641.16;5088079;28;20454;-79
2021/03/21 03:38:24;;;;;;;11.97;5.73;;;;;;;-0.73;60.56;96638.66;5073747;28;20462;-78
2021/03/21 03:40:53;;;;;;;12.03;5.50;;;;;;;-0.72;61.79;96635.16;5096436;28;20461;-79
2021/03/21 03:43:40;;;;;;;13.67;5.50;;;;;;;-0.67;61.03;96640.94;5078695;28;20127;-78
2021/03/21 03:46:26;;;;;;;10.30;6.27;;;;;;;-0.60;61.44;96633.69;5096220;28;21091;-78
2021/03/21 03:48:56;;;;;;;10.80;5.00;;;;;;;-0.71;61.99;96635.06;5069057;28;20502;-79
2021/03/21 03:51:36;;;;;;;11.40;5.57;;;;;;;-0.63;61.79;96633.88;5076038;28;20467;-78
2021/03/21 03:54:24;;;;;;;9.90;5.23;;;;;;;-0.77;61.75;96632.84;5073023;28;20467;-78
2021/03/21 03:57:24;;;;;;;12.97;5.77;;;;;;;-0.72;61.92;96633.41;5081855;28;20442;-79
2021/03/21 04:00:04;;;;;;;10.40;5.63;;;;;;;-0.67;61.46;96629.75;5082718;28;21037;-79
2021/03/21 04:02:57;;;;;;;8.23;4.87;;;;;;;-0.75;62.27;96631.00;5091818;28;20467;-79
2021/03/21 04:05:35;;;;;;;8.57;5.67;;;;;;;-0.83;62.30;96637.47;5062476;28;20486;-79
2021/03/21 04:08:21;;;;;;;10.30;4.60;;;;;;;-0.77;61.86;96630.25;5066136;28;20574;-80
2021/03/21 04:10:57;;;;;;;13.50;5.80;;;;;;;-0.85;62.49;96631.56;5071943;28;20454;-79
2021/03/21 04:13:34;;;;;;;12.67;5.80;;;;;;;-0.78;62.30;96638.88;5079486;28;20477;-79
2021/03/21 04:15:59;;;;;;;12.10;5.43;;;;;;;-0.79;62.77;96634.66;5069832;28;20466;-79
2021/03/21 04:18:36;;;;;;;10.83;5.70;;;;;;;-0.81;62.05;96614.97;5081185;28;20807;-79
2021/03/21 04:21:14;;;;;;;9.13;5.23;;;;;;;-0.72;62.82;96624.84;5075609;28;20432;-79
2021/03/21 04:24:15;;;;;;;14.80;5.80;;;;;;;-0.85;62.68;96619.47;5086282;28;20502;-77
2021/03/21 04:26:51;;;;;;;8.60;5.30;;;;;;;-0.77;62.52;96621.66;5065549;28;20586;-79
2021/03/21 04:29:36;;;;;;;10.37;5.40;;;;;;;-0.73;62.72;96626.59;5081420;28;20470;-79
2021/03/21 04:32:10;;;;;;;9.70;6.67;;;;;;;-0.74;62.42;96622.34;5083488;28;20488;-78
2021/03/21 04:34:40;;;;;;;11.30;5.70;;;;;;;-0.77;62.73;96613.91;5078546;28;20434;-79
2021/03/21 04:37:08;;;;;;;9.00;5.23;;;;;;;-0.80;62.85;96612.34;5085083;28;20458;-79
2021/03/21 04:39:36;;;;;;;10.30;6.10;;;;;;;-0.77;62.83;96606.16;5076406;28;20470;-79
2021/03/21 04:42:08;;;;;;;13.07;6.43;;;;;;;-0.80;62.17;96608.91;5070233;28;20467;-79
2021/03/21 04:44:46;;;;;;;8.67;4.70;;;;;;;-0.79;62.81;96603.66;5078930;28;21363;-79
2021/03/21 04:47:49;;;;;;;10.67;4.87;;;;;;;-0.75;61.97;96601.75;5083154;28;21142;-79
2021/03/21 04:50:17;;;;;;;11.70;4.87;;;;;;;-0.78;62.50;96592.41;5080111;28;20577;-79
2021/03/21 04:53:00;;;;;;;9.93;4.93;;;;;;;-0.68;62.90;96584.19;5079286;28;21073;-79
2021/03/21 04:55:31;;;;;;;10.97;5.90;;;;;;;-0.74;63.32;96583.59;5083311;28;20582;-79
2021/03/21 04:58:02;;;;;;;10.83;5.13;;;;;;;-0.75;63.17;96587.09;5078960;28;20463;-79
2021/03/21 05:00:32;;;;;;;8.00;4.93;;;;;;;-0.72;64.02;96584.34;5086027;28;20478;-78
2021/03/21 05:03:07;;;;;;;9.17;5.37;;;;;;;-0.73;64.60;96571.53;5089320;28;20539;-78
2021/03/21 05:05:39;;;;;;;9.03;5.13;;;;;;;-0.66;64.51;96572.03;5071841;28;20471;-76
2021/03/21 05:08:11;;;;;;;8.70;5.20;;;;;;;-0.80;63.82;96571.03;5069429;28;20570;-77
2021/03/21 05:10:52;;;;;;;10.10;5.23;;;;;;;-0.83;64.63;96576.34;5083577;28;20532;-78
2021/03/21 05:13:29;;;;;;;9.80;5.03;;;;;;;-0.81;64.50;96584.00;5092675;28;20453;-77
2021/03/21 05:16:23;;;;;;;8.33;5.13;;;;;;;-0.89;64.41;96581.81;5090178;28;20446;-77
2021/03/21 05:19:26;;;;;;;10.80;5.90;;;;;;;-0.86;64.54;96584.25;5066283;28;20567;-77
2021/03/21 05:22:04;;;;;;;11.40;5.80;;;;;;;-0.89;64.87;96581.00;5076216;28;20067;-77
2021/03/21 05:25:01;;;;;;;10.83;5.00;;;;;;;-0.80;65.55;96581.34;5080747;28;20872;-77
2021/03/21 05:27:36;;;;;;;10.93;5.37;;;;;;;-0.83;64.85;96586.66;5083952;28;20493;-77
2021/03/21 05:30:34;;;;;;;13.27;6.17;;;;;;;-0.87;65.46;96599.81;5085606;28;20466;-78
2021/03/21 05:33:02;;;;;;;9.17;5.20;;;;;;;-0.84;65.57;96595.34;5091961;28;20912;-77
2021/03/21 05:35:31;;;;;;;12.37;6.20;;;;;;;-0.87;65.28;96597.22;5093004;28;20834;-78
2021/03/21 05:38:11;;;;;;;9.73;5.17;;;;;;;-0.88;65.30;96592.97;5080433;28;20491;-77
2021/03/21 05:41:02;;;;;;;9.07;5.07;;;;;;;-0.84;65.38;96594.47;5078885;28;20498;-77
2021/03/21 05:44:05;;;;;;;10.60;5.67;;;;;;;-0.83;64.67;96593.59;5070609;28;20473;-77
2021/03/21 05:47:02;;;;;;;11.03;5.83;;;;;;;-0.81;64.84;96592.56;5091151;28;20475;-77
2021/03/21 05:49:49;;;;;;;16.20;6.33;;;;;;;-0.85;65.49;96582.50;5077981;28;20684;-78
2021/03/21 05:52:46;;;;;;;13.10;7.17;;;;;;;-0.78;65.31;96589.81;5058771;28;20473;-77
2021/03/21 05:55:39;;;;;;;10.13;5.60;;;;;;;-0.82;65.01;96585.75;5066461;28;20512;-78
2021/03/21 05:58:42;;;;;;;12.90;5.85;;;;;;;-0.75;65.77;96575.94;5086823;28;20430;-77
2021/03/21 06:01:20;;;;;;;9.33;5.50;;;;;;;-0.75;64.56;96578.50;5081227;28;20032;-78
2021/03/21 06:04:11;;;;;;;13.17;6.53;;;;;;;-0.74;65.16;96572.41;5079773;28;20593;-77
2021/03/21 06:06:59;;;;;;;10.07;5.20;;;;;;;-0.68;64.81;96563.53;5089176;28;21062;-77
2021/03/21 06:09:57;;;;;;;10.07;5.27;;;;;;;-0.67;64.56;96555.72;5090305;28;20471;-77
2021/03/21 06:12:28;;;;;;;10.07;5.10;;;;;;;-0.74;64.84;96554.34;5085556;28;20465;-77
2021/03/21 06:15:01;;;;;;;9.43;5.53;;;;;;;-0.69;65.03;96546.38;5068706;28;20451;-77
2021/03/21 06:18:07;;;;;;;9.45;5.47;;;;;;;-0.71;65.44;96549.00;5075027;28;20541;-77
2021/03/21 06:20:48;;;;;;;9.50;4.97;;;;;;;-0.65;64.95;96540.94;5099640;28;20377;-78
2021/03/21 06:23:23;;;;;;;11.37;6.20;;;;;;;-0.72;64.91;96540.44;5054877;28;20478;-78
2021/03/21 06:26:23;;;;;;;9.40;5.47;;;;;;;-0.62;65.53;96542.53;5081311;28;21072;-78
2021/03/21 06:29:18;;;;;;;9.73;4.73;;;;;;;-0.67;65.19;96547.09;5080014;28;20462;-77
2021/03/21 06:32:08;;;;;;;9.83;4.97;;;;;;;-0.66;65.31;96535.88;5078040;28;20498;-78
2021/03/21 06:35:09;;;;;;;9.67;5.60;;;;;;;-0.71;65.06;96544.69;5068180;28;20452;-78
2021/03/21 06:37:44;;;;;;;10.83;5.43;;;;;;;-0.66;65.13;96538.47;5072192;28;20470;-79
2021/03/21 06:40:25;;;;;;;10.80;5.67;;;;;;;-0.68;64.80;96558.34;5074445;28;20486;-78
2021/03/21 06:43:12;;;;;;;10.73;5.80;;;;;;;-0.64;65.72;96554.69;5077247;28;20438;-77
2021/03/21 06:45:53;;;;;;;11.93;5.60;;;;;;;-0.60;65.02;96544.13;5079384;28;20466;-78
2021/03/21 06:48:35;;;;;;;10.77;5.40;;;;;;;-0.58;65.67;96552.59;5056071;28;20494;-78
2021/03/21 06:51:16;;;;;;;12.03;5.07;;;;;;;-0.50;65.35;96557.38;5089672;28;20430;-77
2021/03/21 06:53:55;;;;;;;10.40;5.70;;;;;;;-0.46;64.76;96555.47;5073541;28;20458;-78
2021/03/21 06:56:30;;;;;;;12.70;6.23;;;;;;;-0.47;64.92;96557.19;5080159;28;20476;-78
2021/03/21 06:59:05;;;;;;;11.30;5.50;;;;;;;-0.46;64.54;96561.44;5069400;28;20466;-78
2021/03/21 07:01:34;;;;;;;9.80;5.20;;;;;;;-0.44;64.64;96566.53;5081815;28;20469;-78
2021/03/21 07:04:08;;;;;;;11.07;5.30;;;;;;;-0.48;65.56;96565.84;5067525;28;20524;-78
2021/03/21 07:06:56;;;;;;;10.33;5.77;;;;;;;-0.40;64.92;96557.69;5098811;28;20454;-78
2021/03/21 07:09:41;;;;;;;12.73;5.63;;;;;;;-0.40;65.25;96558.53;5070495;28;20549;-78
2021/03/21 07:12:39;;;;;;;10.07;5.73;;;;;;;-0.29;65.59;96561.34;5067834;28;20442;-78
2021/03/21 07:15:23;;;;;;;8.37;5.13;;;;;;;-0.25;64.20;96568.00;5089663;28;20434;-80
2021/03/21 07:18:01;;;;;;;12.77;6.57;;;;;;;-0.27;64.06;96550.91;5059046;28;20481;-78
2021/03/21 07:20:49;;;;;;;14.27;7.83;;;;;;;-0.30;64.43;96559.69;5072797;28;20479;-78
2021/03/21 07:23:33;;;;;;;9.57;5.60;;;;;;;-0.27;64.91;96564.69;5072188;28;21357;-77
2021/03/21 07:26:14;;;;;;;9.70;5.50;;;;;;;-0.28;64.50;96557.00;5076198;28;20453;-78
2021/03/21 07:29:01;;;;;;;9.60;5.13;;;;;;;-0.30;64.84;96566.63;5082988;28;21273;-78
2021/03/21 07:31:52;;;;;;;10.03;5.23;;;;;;;-0.15;64.48;96560.59;5076430;28;20434;-78
2021/03/21 07:34:40;;;;;;;11.13;6.07;;;;;;;-0.18;64.31;96553.00;5081774;28;20454;-78
2021/03/21 07:37:44;;;;;;;11.80;6.23;;;;;;;-0.16;63.98;96560.69;5069253;28;20491;-77
2021/03/21 07:40:38;;;;;;;9.57;5.57;;;;;;;-0.19;64.88;96553.09;5081415;28;20588;-77
2021/03/21 07:43:24;;;;;;;15.53;9.50;;;;;;;-0.17;64.28;96546.06;5068907;28;20484;-78
2021/03/21 07:45:49;;;;;;;14.37;8.10;;;;;;;-0.04;64.52;96536.72;5069576;28;21013;-77
2021/03/21 07:48:50;;;;;;;10.67;5.90;;;;;;;-0.02;65.09;96537.47;5051021;28;20489;-75
2021/03/21 07:51:40;;;;;;;14.93;6.60;;;;;;;0.01;64.94;96539.06;5011240;28;20045;-77
2021/03/21 07:54:24;;;;;;;11.53;6.70;;;;;;;0.12;65.32;96526.34;5061892;28;20463;-77
2021/03/21 07:57:00;;;;;;;10.53;6.10;;;;;;;0.16;65.20;96533.81;5088265;28;20450;-77
2021/03/21 07:59:30;;;;;;;14.33;6.70;;;;;;;0.14;65.00;96530.50;5074315;28;20565;-77
2021/03/21 08:01:56;;;;;;;11.50;5.67;;;;;;;0.14;65.23;96520.16;5089721;28;20442;-78
2021/03/21 08:04:37;;;;;;;11.70;6.07;;;;;;;0.09;65.33;96516.16;5054003;28;20505;-77
2021/03/21 08:07:09;;;;;;;14.97;7.73;;;;;;;0.07;64.37;96503.34;5074616;28;20063;-77
2021/03/21 08:09:38;;;;;;;9.53;5.23;;;;;;;0.10;64.44;96515.25;5080281;28;20470;-78
2021/03/21 08:12:18;;;;;;;10.37;5.87;;;;;;;0.20;65.45;96511.19;5078816;28;20483;-78
2021/03/21 08:14:56;;;;;;;16.50;7.07;;;;;;;0.19;64.94;96509.53;5079100;28;20492;-78
2021/03/21 08:17:38;;;;;;;12.50;6.93;;;;;;;0.28;64.75;96505.59;5072618;28;20473;-78
2021/03/21 08:20:17;;;;;;;12.93;6.00;;;;;;;0.39;63.77;96508.38;5069493;28;20564;-77
2021/03/21 08:22:44;;;;;;;9.03;4.73;;;;;;;0.44;63.60;96502.03;5076361;28;21105;-77
2021/03/21 08:25:16;;;;;;;9.47;5.10;;;;;;;0.32;62.91;96494.16;5054906;28;20544;-78
2021/03/21 08:27:42;;;;;;;7.80;4.70;;;;;;;0.44;62.88;96483.09;5082934;28;20539;-77
2021/03/21 08:30:13;;;;;;;9.10;4.67;;;;;;;0.52;62.39;96477.44;5063135;28;20467;-77
2021/03/21 08:33:01;;;;;;;11.20;5.43;;;;;;;0.63;61.89;96477.63;5074128;28;20045;-77
2021/03/21 08:35:31;;;;;;;12.77;5.90;;;;;;;0.70;61.55;96469.41;5081111;28;20530;-77
2021/03/21 08:38:01;;;;;;;10.63;5.00;;;;;;;0.91;61.09;96463.84;5050286;28;20467;-77
2021/03/21 08:40:39;;;;;;;10.23;5.17;;;;;;;0.90;61.00;96462.16;5066530;28;20470;-77
2021/03/21 08:43:08;;;;;;;10.17;4.57;;;;;;;0.93;61.66;96467.16;5075647;28;20463;-77
2021/03/21 08:45:40;;;;;;;9.33;4.97;;;;;;;0.99;61.79;96460.78;5063497;28;20536;-77
2021/03/21 08:48:13;;;;;;;8.43;4.70;;;;;;;1.07;61.56;96464.53;5060408;28;20545;-76
2021/03/21 08:50:45;;;;;;;11.70;4.63;;;;;;;0.96;61.56;96472.16;5092524;28;20471;-77
2021/03/21 08:53:32;;;;;;;11.37;6.03;;;;;;;1.18;62.04;96463.91;5080106;28;20449;-76
2021/03/21 08:56:20;;;;;;;8.63;5.23;;;;;;;1.15;60.97;96467.50;5071365;28;21178;-77
2021/03/21 08:58:49;;;;;;;9.63;4.67;;;;;;;1.06;61.80;96464.66;5043131;28;20473;-77
2021/03/21 09:01:24;;;;;;;9.40;4.57;;;;;;;1.05;61.10;96463.81;5055581;28;20459;-77
2021/03/21 09:04:07;;;;;;;8.77;4.67;;;;;;;0.89;61.48;96468.28;5074603;28;20473;-77
2021/03/21 09:06:36;;;;;;;8.60;4.75;;;;;;;0.91;60.94;96474.22;5079814;28;20470;-77
2021/03/21 09:09:15;;;;;;;9.47;4.87;;;;;;;0.89;60.40;96470.88;5064183;28;20091;-77
2021/03/21 09:11:44;;;;;;;11.77;4.40;;;;;;;0.93;59.59;96480.09;5073270;28;20478;-78
2021/03/21 09:14:31;;;;;;;8.47;4.93;;;;;;;0.81;60.80;96471.34;5076765;28;20508;-76
2021/03/21 09:17:18;;;;;;;7.30;4.60;;;;;;;0.90;61.10;96469.94;5059494;28;20478;-78
2021/03/21 09:19:47;;;;;;;9.80;4.60;;;;;;;0.91;60.94;96472.44;5077960;28;20478;-78
2021/03/21 09:22:37;;;;;;;9.97;5.13;;;;;;;0.99;61.38;96461.59;5061099;28;21070;-78
2021/03/21 09:25:21;;;;;;;10.30;4.90;;;;;;;0.96;60.38;96469.56;5078172;28;21080;-78
2021/03/21 09:27:47;;;;;;;9.27;4.93;;;;;;;0.94;61.11;96474.03;5081451;28;20458;-78
2021/03/21 09:30:43;;;;;;;8.80;4.40;;;;;;;1.01;61.55;96471.88;5056314;28;20466;-78
2021/03/21 09:33:20;;;;;;;11.63;4.37;;;;;;;1.17;61.10;96483.78;5056104;28;20041;-78
2021/03/21 09:36:15;;;;;;;8.63;4.10;;;;;;;1.13;62.11;96491.84;5080208;28;20474;-78
2021/03/21 09:39:10;;;;;;;9.03;5.13;;;;;;;1.14;61.54;96503.84;5076443;28;20423;-77
2021/03/21 09:41:36;;;;;;;10.87;6.07;;;;;;;1.20;61.98;96495.69;5071575;28;20460;-78
2021/03/21 09:44:05;;;;;;;9.43;4.80;;;;;;;1.22;61.43;96496.44;5074332;28;20455;-78
2021/03/21 09:46:43;;;;;;;10.30;5.07;;;;;;;1.16;61.40;96491.66;5085254;28;21036;-79
2021/03/21 09:49:50;;;;;;;10.23;5.40;;;;;;;1.22;61.27;96490.44;5095868;28;20491;-77
2021/03/21 09:52:50;;;;;;;11.37;5.77;;;;;;;1.53;61.07;96482.38;5036731;28;20574;-78
2021/03/21 09:55:29;;;;;;;10.90;5.23;;;;;;;1.58;60.66;96477.75;5079444;28;20970;-77
2021/03/21 09:58:33;;;;;;;10.17;5.37;;;;;;;1.58;59.87;96477.75;5075241;28;20469;-78
2021/03/21 10:01:04;;;;;;;10.07;5.38;;;;;;;1.84;60.20;96483.00;5075593;28;21312;-78
2021/03/21 10:03:32;;;;;;;11.73;5.87;;;;;;;1.96;59.74;96477.03;5072430;28;20043;-78
2021/03/21 10:06:05;;;;;;;11.87;5.40;;;;;;;2.10;59.07;96482.13;5083190;28;20455;-78
2021/03/21 10:09:03;;;;;;;8.20;4.70;;;;;;;2.03;59.20;96470.50;5065602;28;20494;-77
2021/03/21 10:11:38;;;;;;;68.30;33.53;;;;;;;2.17;59.55;96471.34;5047094;28;20076;-77
2021/03/21 10:14:37;;;;;;;69.30;40.07;;;;;;;2.17;58.79;96463.56;5086306;28;20434;-76
2021/03/21 10:17:25;;;;;;;16.23;10.60;;;;;;;2.34;58.45;96468.47;5028724;28;21082;-77
2021/03/21 10:19:55;;;;;;;11.47;6.67;;;;;;;2.27;58.23;96464.63;5050709;28;20486;-77
2021/03/21 10:22:20;;;;;;;11.13;6.00;;;;;;;2.31;58.65;96458.28;5071369;28;20548;-76
2021/03/21 10:24:48;;;;;;;10.60;6.70;;;;;;;2.50;58.46;96461.31;5074592;28;20455;-78
2021/03/21 10:27:14;;;;;;;16.57;7.23;;;;;;;2.62;59.16;96454.47;5085628;28;20450;-78
2021/03/21 10:29:40;;;;;;;11.47;7.07;;;;;;;2.47;59.98;96460.69;5055700;28;20581;-77
2021/03/21 10:32:29;;;;;;;10.53;6.00;;;;;;;2.60;58.87;96462.34;5063937;28;20028;-78
2021/03/21 10:34:56;;;;;;;11.57;6.80;;;;;;;2.60;58.70;96451.97;5073682;28;20028;-77
2021/03/21 10:37:40;;;;;;;11.37;6.50;;;;;;;2.78;59.94;96457.69;5071452;28;20439;-77
2021/03/21 10:40:26;;;;;;;11.17;5.70;;;;;;;2.71;58.93;96451.22;5075125;28;20490;-77
2021/03/21 10:42:55;;;;;;;14.20;6.23;;;;;;;2.65;59.33;96443.00;5053716;28;20459;-77
2021/03/21 10:45:34;;;;;;;12.90;5.87;;;;;;;2.44;60.02;96434.94;5070866;28;21009;-77
2021/03/21 10:48:15;;;;;;;11.67;6.43;;;;;;;2.41;61.68;96441.16;5092344;28;20545;-79
2021/03/21 10:50:53;;;;;;;14.83;8.03;;;;;;;2.38;61.29;96438.78;5065541;28;20474;-77
2021/03/21 10:53:47;;;;;;;12.30;6.87;;;;;;;2.21;63.81;96428.69;5075783;28;20461;-77
2021/03/21 10:56:20;;;;;;;8.18;5.10;;;;;;;2.32;63.89;96437.44;5063865;28;20478;-78
2021/03/21 10:58:46;;;;;;;12.57;6.95;;;;;;;2.41;63.17;96429.94;5080367;28;20040;-77
2021/03/21 11:01:22;;;;;;;12.87;6.30;;;;;;;2.35;62.75;96431.22;5061122;28;20031;-78
2021/03/21 11:04:01;;;;;;;13.23;6.50;;;;;;;2.51;62.73;96425.78;5067364;28;20040;-78
2021/03/21 11:06:35;;;;;;;12.57;7.23;;;;;;;2.40;63.02;96426.53;5060821;28;20490;-78
2021/03/21 11:09:11;;;;;;;12.60;6.50;;;;;;;2.46;63.10;96426.13;5077350;28;20536;-76
2021/03/21 11:11:45;;;;;;;12.50;6.20;;;;;;;2.67;63.26;96417.78;5084093;28;20451;-78
2021/03/21 11:14:17;;;;;;;11.80;6.73;;;;;;;2.45;64.43;96413.22;5068601;28;20470;-77
2021/03/21 11:16:56;;;;;;;11.37;5.70;;;;;;;2.36;64.48;96412.09;5077722;28;20522;-77
2021/03/21 11:19:28;;;;;;;10.37;5.83;;;;;;;2.29;64.94;96410.88;5089408;28;20466;-78
2021/03/21 11:21:54;;;;;;;11.10;6.00;;;;;;;2.39;65.01;96417.09;5076388;28;20458;-78
2021/03/21 11:24:26;;;;;;;11.80;6.80;;;;;;;2.48;66.19;96415.63;5079934;28;20451;-78
2021/03/21 11:26:52;;;;;;;11.13;6.77;;;;;;;2.45;65.63;96414.09;5078456;28;20575;-78
2021/03/21 11:29:40;;;;;;;9.37;5.70;;;;;;;2.53;66.04;96411.78;5073808;28;20466;-77
2021/03/21 11:32:25;;;;;;;8.60;5.37;;;;;;;2.73;66.71;96420.78;5090911;28;20941;-77
2021/03/21 11:35:01;;;;;;;10.67;6.03;;;;;;;2.70;65.74;96420.19;5079662;28;20457;-77
2021/03/21 11:37:33;;;;;;;13.40;6.33;;;;;;;2.62;66.14;96415.53;5068000;28;20483;-76
2021/03/21 11:40:11;;;;;;;18.50;10.70;;;;;;;2.48;67.10;96421.66;5078149;28;20470;-78
2021/03/21 11:42:40;;;;;;;13.23;7.27;;;;;;;2.48;67.17;96416.47;5077863;28;20462;-78
2021/03/21 11:45:14;;;;;;;12.43;6.17;;;;;;;2.87;66.78;96413.81;5067290;28;20484;-77
2021/03/21 11:47:45;;;;;;;9.63;5.13;;;;;;;2.78;66.65;96412.66;5063812;28;20522;-78
2021/03/21 11:50:33;;;;;;;12.17;7.33;;;;;;;2.84;67.73;96407.88;5080860;28;20483;-77
2021/03/21 11:53:01;;;;;;;63.03;34.20;;;;;;;2.81;68.30;96408.09;5084289;28;20473;-78
2021/03/21 11:55:31;;;;;;;11.23;6.20;;;;;;;2.85;67.85;96419.13;5085898;28;20482;-76
2021/03/21 11:58:02;;;;;;;8.67;5.83;;;;;;;2.77;68.66;96409.25;5099295;28;20686;-76
2021/03/21 12:00:37;;;;;;;8.87;5.57;;;;;;;2.76;68.84;96409.38;5077713;28;20487;-78
2021/03/21 12:03:16;;;;;;;10.57;5.93;;;;;;;2.74;68.83;96396.47;5110751;28;20447;-77
2021/03/21 12:06:00;;;;;;;9.80;5.90;;;;;;;2.79;68.16;96398.75;5072728;28;20430;-77
2021/03/21 12:08:39;;;;;;;;;;;;;;;2.48;68.74;96400.03;5074002;28;20601;-77
2021/03/21 12:11:23;;;;;;;9.60;5.53;;;;;;;2.59;68.47;96406.16;5081668;28;20007;-78
2021/03/21 12:13:49;;;;;;;;;;;;;;;2.76;68.59;96404.19;5089449;28;20495;-78
2021/03/21 12:16:37;;;;;;;9.17;5.33;;;;;;;2.66;69.82;96397.97;5076161;28;20433;-78
2021/03/21 12:19:05;;;;;;;8.27;5.07;;;;;;;2.77;69.27;96406.66;5087590;28;20024;-79
2021/03/21 12:21:36;;;;;;;11.43;5.53;;;;;;;2.72;69.02;96407.94;5052633;28;20462;-78